Oklahoma City, OK (73119)

11:31 PM CDT on May 22, 2015 (GMT -0500)
I-240 and Western | | Change Station
CLOSE
Current Station
Personal Weather Station
Location: Oklahoma City, OK
Elevation: 1260 ft
Nearby Weather Stations
Active Advisory: Flash Flood Watch Active Notice: Record Report

Elev 1260 ft 35.39 °N, 97.53 °W | Updated 25 seconds ago

Light Drizzle
Light Drizzle Mist
57.2 °F
Feels Like 57.2 °F
N
0.0
Wind Variable Wind from SE
Gusts 4.0 mph

Today
High -- | Low -- °F
--% Chance of Precip.
Yesterday
High -- | Low -- °F
Precip. -- in
6:21 AM 8:33 PM
Waxing Crescent, 26% visible
Pressure 30.14 in
Visibility 5.0 miles
Clouds Overcast 400 ft
Dew Point 55 °F
Humidity 91%
Rainfall 0.00 in
Snow Depth Not available.
UV 0 out of 12
Pollen .80 out of 12
Air Quality Not available.
Flu Activity Sporadic
METAR KOKC 230352Z 14010KT 5SM -DZ BR OVC004 13/13 A3015 RMK AO2 DZB21 SLP205 P0000 T01330128

More Conditions Fewer Conditions

Pressure 30.14 in
Visibility 5.0 miles
Clouds Overcast 400 ft
Dew Point 55 °F
Humidity 91%
Rainfall 0.00 in
Snow Depth Not available.
UV 0 out of 12
Pollen .80 out of 12
Air Quality Not available.
Flu Activity Sporadic
METAR KOKC 230352Z 14010KT 5SM -DZ BR OVC004 13/13 A3015 RMK AO2 DZB21 SLP205 P0000 T01330128

More Conditions Fewer Conditions

10-Day Weather Forecast

Almanac

Astronomy

May. 22, 2015 Rise Set
Actual Time
Civil Twilight
Nautical Twilight
Astronomical Twilight
Moon
Length of Visible Light
Length of Day
Tomorrow will be .
, % of the Moon is Illuminated

Today's Extremes

State Highs State Lows

Community

WunderPhotos

Upload Photos

1,823,386 photos uploaded!

WunderBlogs® & News

Nearby

Air Quality

  Air Quality AQ Index Pollutant
Not available.

Snow Depth

Station Depth Elevation

Earthquake Activity

City Distance Mag. Time & Date
Minimum magnitude displayed is 2.5.

Coastal Water Temperatures

Place Temperature

Stations

Nearby Weather Stations

Station Location Temp. Windchill Dew Point Humidity Wind Precip. Elev Updated Type
                   
Flash Flood Watch
Statement as of 5:24 PM CDT on May 22, 2015

... Flash Flood Watch remains in effect through Monday morning...

The Flash Flood Watch continues for

* all of western... central... and southern Oklahoma... and western
North Texas.

* Through Monday morning

* 2 to 5 inches of rainfall... with locally higher amounts will be
possible.

Precautionary/preparedness actions...

Monitor weather forecasts and information. Avoid travel in
flooded areas... and make plans to get to higher ground if
flooding develops or worsens in your area.



Austin